sensor_id;sensor_type;location;lat;lon;timestamp;P1;durP1;ratioP1;P2;durP2;ratioP2
65477;SDS011;53678;39.642;22.430;2023-05-08T00:01:35;4.97;;;3.30;;
65477;SDS011;53678;39.642;22.430;2023-05-08T00:04:01;5.90;;;3.17;;
65477;SDS011;53678;39.642;22.430;2023-05-08T00:06:26;5.93;;;3.17;;
65477;SDS011;53678;39.642;22.430;2023-05-08T00:08:53;7.10;;;3.00;;
65477;SDS011;53678;39.642;22.430;2023-05-08T00:11:19;6.65;;;3.10;;
65477;SDS011;53678;39.642;22.430;2023-05-08T00:13:45;3.65;;;2.78;;
65477;SDS011;53678;39.642;22.430;2023-05-08T00:16:11;4.82;;;2.90;;
65477;SDS011;53678;39.642;22.430;2023-05-08T00:18:37;5.82;;;3.05;;
65477;SDS011;53678;39.642;22.430;2023-05-08T00:21:03;5.35;;;3.47;;
65477;SDS011;53678;39.642;22.430;2023-05-08T00:23:30;4.60;;;2.53;;
65477;SDS011;53678;39.642;22.430;2023-05-08T00:25:56;10.68;;;3.15;;
65477;SDS011;53678;39.642;22.430;2023-05-08T00:28:22;3.70;;;2.83;;
65477;SDS011;53678;39.642;22.430;2023-05-08T00:30:47;6.47;;;3.15;;
65477;SDS011;53678;39.642;22.430;2023-05-08T00:33:13;4.38;;;2.95;;
65477;SDS011;53678;39.642;22.430;2023-05-08T00:35:39;5.28;;;3.15;;
65477;SDS011;53678;39.642;22.430;2023-05-08T00:38:08;6.35;;;3.22;;
65477;SDS011;53678;39.642;22.430;2023-05-08T00:40:34;5.10;;;3.17;;
65477;SDS011;53678;39.642;22.430;2023-05-08T00:43:00;7.30;;;3.00;;
65477;SDS011;53678;39.642;22.430;2023-05-08T00:45:32;4.55;;;2.90;;
65477;SDS011;53678;39.642;22.430;2023-05-08T00:48:01;4.53;;;2.95;;
65477;SDS011;53678;39.642;22.430;2023-05-08T00:50:28;6.10;;;2.67;;
65477;SDS011;53678;39.642;22.430;2023-05-08T00:52:55;5.13;;;2.90;;
65477;SDS011;53678;39.642;22.430;2023-05-08T00:55:21;5.85;;;3.05;;
65477;SDS011;53678;39.642;22.430;2023-05-08T00:57:47;7.82;;;3.22;;
65477;SDS011;53678;39.642;22.430;2023-05-08T01:00:15;4.85;;;2.70;;
65477;SDS011;53678;39.642;22.430;2023-05-08T01:02:42;3.83;;;2.60;;
65477;SDS011;53678;39.642;22.430;2023-05-08T01:05:08;3.63;;;2.88;;
65477;SDS011;53678;39.642;22.430;2023-05-08T01:07:34;6.40;;;2.78;;
65477;SDS011;53678;39.642;22.430;2023-05-08T01:10:00;5.68;;;3.15;;
65477;SDS011;53678;39.642;22.430;2023-05-08T01:29:27;5.05;;;2.95;;
65477;SDS011;53678;39.642;22.430;2023-05-08T01:32:19;4.93;;;3.13;;
65477;SDS011;53678;39.642;22.430;2023-05-08T01:35:10;5.93;;;2.83;;
65477;SDS011;53678;39.642;22.430;2023-05-08T01:43:22;4.32;;;2.88;;
65477;SDS011;53678;39.642;22.430;2023-05-08T01:45:53;5.72;;;3.10;;
65477;SDS011;53678;39.642;22.430;2023-05-08T01:48:23;5.50;;;3.40;;
65477;SDS011;53678;39.642;22.430;2023-05-08T01:50:58;4.18;;;2.70;;
65477;SDS011;53678;39.642;22.430;2023-05-08T01:53:28;5.40;;;2.83;;
65477;SDS011;53678;39.642;22.430;2023-05-08T01:56:02;5.28;;;2.83;;
65477;SDS011;53678;39.642;22.430;2023-05-08T01:58:35;4.25;;;3.22;;
65477;SDS011;53678;39.642;22.430;2023-05-08T02:01:02;4.50;;;3.08;;
65477;SDS011;53678;39.642;22.430;2023-05-08T02:03:29;4.97;;;2.90;;
65477;SDS011;53678;39.642;22.430;2023-05-08T02:05:56;5.25;;;3.10;;
65477;SDS011;53678;39.642;22.430;2023-05-08T02:08:23;7.85;;;3.80;;
65477;SDS011;53678;39.642;22.430;2023-05-08T02:10:51;5.25;;;3.13;;
65477;SDS011;53678;39.642;22.430;2023-05-08T02:13:21;12.40;;;3.63;;
65477;SDS011;53678;39.642;22.430;2023-05-08T02:15:47;7.18;;;3.17;;
65477;SDS011;53678;39.642;22.430;2023-05-08T02:18:17;5.72;;;3.60;;
65477;SDS011;53678;39.642;22.430;2023-05-08T02:20:45;6.55;;;3.50;;
65477;SDS011;53678;39.642;22.430;2023-05-08T02:23:15;6.38;;;3.28;;
65477;SDS011;53678;39.642;22.430;2023-05-08T02:25:43;5.88;;;3.15;;
65477;SDS011;53678;39.642;22.430;2023-05-08T02:28:10;11.25;;;4.68;;
65477;SDS011;53678;39.642;22.430;2023-05-08T02:30:37;7.00;;;3.50;;
65477;SDS011;53678;39.642;22.430;2023-05-08T02:33:06;12.80;;;4.65;;
65477;SDS011;53678;39.642;22.430;2023-05-08T02:35:33;11.55;;;4.57;;
65477;SDS011;53678;39.642;22.430;2023-05-08T02:38:01;8.80;;;4.20;;
65477;SDS011;53678;39.642;22.430;2023-05-08T02:40:35;9.73;;;4.60;;
65477;SDS011;53678;39.642;22.430;2023-05-08T02:43:04;10.70;;;4.70;;
65477;SDS011;53678;39.642;22.430;2023-05-08T02:45:40;7.05;;;3.95;;
65477;SDS011;53678;39.642;22.430;2023-05-08T02:48:12;5.65;;;4.03;;
65477;SDS011;53678;39.642;22.430;2023-05-08T02:50:59;11.38;;;4.53;;
65477;SDS011;53678;39.642;22.430;2023-05-08T02:54:16;6.38;;;3.67;;
65477;SDS011;53678;39.642;22.430;2023-05-08T02:56:27;10.23;;;4.47;;
65477;SDS011;53678;39.642;22.430;2023-05-08T03:04:24;10.00;;;4.35;;
65477;SDS011;53678;39.642;22.430;2023-05-08T03:06:53;8.00;;;4.32;;
65477;SDS011;53678;39.642;22.430;2023-05-08T03:09:22;5.57;;;4.10;;
65477;SDS011;53678;39.642;22.430;2023-05-08T03:11:52;6.18;;;4.03;;
65477;SDS011;53678;39.642;22.430;2023-05-08T03:16:51;13.23;;;5.25;;
65477;SDS011;53678;39.642;22.430;2023-05-08T03:19:22;8.93;;;4.95;;
65477;SDS011;53678;39.642;22.430;2023-05-08T03:21:51;11.00;;;5.07;;
65477;SDS011;53678;39.642;22.430;2023-05-08T03:24:19;13.40;;;5.22;;
65477;SDS011;53678;39.642;22.430;2023-05-08T03:26:48;8.25;;;5.38;;
65477;SDS011;53678;39.642;22.430;2023-05-08T03:29:14;22.63;;;5.75;;
65477;SDS011;53678;39.642;22.430;2023-05-08T03:31:43;17.35;;;5.72;;
65477;SDS011;53678;39.642;22.430;2023-05-08T03:34:11;12.95;;;5.88;;
65477;SDS011;53678;39.642;22.430;2023-05-08T03:36:38;20.13;;;5.38;;
65477;SDS011;53678;39.642;22.430;2023-05-08T03:39:04;14.38;;;5.07;;
65477;SDS011;53678;39.642;22.430;2023-05-08T03:41:30;7.45;;;4.50;;
65477;SDS011;53678;39.642;22.430;2023-05-08T03:43:56;13.50;;;5.65;;
65477;SDS011;53678;39.642;22.430;2023-05-08T03:46:23;28.50;;;6.57;;
65477;SDS011;53678;39.642;22.430;2023-05-08T03:48:50;15.23;;;5.70;;
65477;SDS011;53678;39.642;22.430;2023-05-08T03:51:18;18.33;;;5.90;;
65477;SDS011;53678;39.642;22.430;2023-05-08T03:53:44;10.73;;;5.25;;
65477;SDS011;53678;39.642;22.430;2023-05-08T03:56:11;22.70;;;7.80;;
65477;SDS011;53678;39.642;22.430;2023-05-08T03:58:40;19.52;;;6.28;;
65477;SDS011;53678;39.642;22.430;2023-05-08T04:01:24;15.88;;;5.57;;
65477;SDS011;53678;39.642;22.430;2023-05-08T04:04:11;16.42;;;6.13;;
65477;SDS011;53678;39.642;22.430;2023-05-08T04:09:36;13.85;;;6.45;;
65477;SDS011;53678;39.642;22.430;2023-05-08T04:12:14;14.43;;;6.20;;
65477;SDS011;53678;39.642;22.430;2023-05-08T04:14:46;10.63;;;5.63;;
65477;SDS011;53678;39.642;22.430;2023-05-08T04:17:21;12.50;;;5.53;;
65477;SDS011;53678;39.642;22.430;2023-05-08T04:19:57;18.90;;;7.93;;
65477;SDS011;53678;39.642;22.430;2023-05-08T04:22:28;16.20;;;6.20;;
65477;SDS011;53678;39.642;22.430;2023-05-08T04:24:58;17.20;;;5.72;;
65477;SDS011;53678;39.642;22.430;2023-05-08T04:27:28;18.10;;;6.90;;
65477;SDS011;53678;39.642;22.430;2023-05-08T04:29:55;14.02;;;5.85;;
65477;SDS011;53678;39.642;22.430;2023-05-08T04:32:22;12.63;;;6.47;;
65477;SDS011;53678;39.642;22.430;2023-05-08T04:34:48;16.60;;;6.32;;
65477;SDS011;53678;39.642;22.430;2023-05-08T04:37:22;14.20;;;5.20;;
65477;SDS011;53678;39.642;22.430;2023-05-08T04:39:50;16.08;;;5.32;;
65477;SDS011;53678;39.642;22.430;2023-05-08T04:42:16;15.18;;;5.38;;
65477;SDS011;53678;39.642;22.430;2023-05-08T04:44:42;11.60;;;5.20;;
65477;SDS011;53678;39.642;22.430;2023-05-08T04:47:07;8.40;;;5.32;;
65477;SDS011;53678;39.642;22.430;2023-05-08T04:49:33;17.33;;;5.90;;
65477;SDS011;53678;39.642;22.430;2023-05-08T04:51:59;13.95;;;5.57;;
65477;SDS011;53678;39.642;22.430;2023-05-08T04:54:26;8.52;;;4.90;;
65477;SDS011;53678;39.642;22.430;2023-05-08T04:56:51;13.30;;;5.45;;
65477;SDS011;53678;39.642;22.430;2023-05-08T04:59:17;15.35;;;6.05;;
65477;SDS011;53678;39.642;22.430;2023-05-08T05:01:47;9.65;;;5.35;;
65477;SDS011;53678;39.642;22.430;2023-05-08T05:04:12;9.82;;;5.68;;
65477;SDS011;53678;39.642;22.430;2023-05-08T05:06:39;9.75;;;4.97;;
65477;SDS011;53678;39.642;22.430;2023-05-08T05:09:08;10.10;;;5.50;;
65477;SDS011;53678;39.642;22.430;2023-05-08T05:11:34;10.43;;;4.75;;
65477;SDS011;53678;39.642;22.430;2023-05-08T05:14:00;10.55;;;5.82;;
65477;SDS011;53678;39.642;22.430;2023-05-08T05:16:26;13.95;;;5.90;;
65477;SDS011;53678;39.642;22.430;2023-05-08T05:18:52;10.68;;;5.50;;
65477;SDS011;53678;39.642;22.430;2023-05-08T05:21:18;9.48;;;5.13;;
65477;SDS011;53678;39.642;22.430;2023-05-08T05:23:44;10.80;;;5.68;;
65477;SDS011;53678;39.642;22.430;2023-05-08T05:26:10;10.88;;;5.47;;
65477;SDS011;53678;39.642;22.430;2023-05-08T05:28:37;14.18;;;5.95;;
65477;SDS011;53678;39.642;22.430;2023-05-08T05:31:03;16.27;;;6.05;;
65477;SDS011;53678;39.642;22.430;2023-05-08T05:33:29;10.25;;;6.65;;
65477;SDS011;53678;39.642;22.430;2023-05-08T05:35:55;9.98;;;5.93;;
65477;SDS011;53678;39.642;22.430;2023-05-08T05:38:22;10.20;;;5.75;;
65477;SDS011;53678;39.642;22.430;2023-05-08T05:40:48;12.98;;;6.05;;
65477;SDS011;53678;39.642;22.430;2023-05-08T05:43:14;12.02;;;6.47;;
65477;SDS011;53678;39.642;22.430;2023-05-08T05:45:40;10.82;;;6.43;;
65477;SDS011;53678;39.642;22.430;2023-05-08T05:48:06;9.85;;;5.70;;
65477;SDS011;53678;39.642;22.430;2023-05-08T05:50:33;6.72;;;5.15;;
65477;SDS011;53678;39.642;22.430;2023-05-08T05:52:59;8.82;;;4.88;;
65477;SDS011;53678;39.642;22.430;2023-05-08T05:55:25;10.45;;;4.72;;
65477;SDS011;53678;39.642;22.430;2023-05-08T05:57:52;10.20;;;5.22;;
65477;SDS011;53678;39.642;22.430;2023-05-08T06:00:20;10.43;;;5.90;;
65477;SDS011;53678;39.642;22.430;2023-05-08T06:02:50;37.65;;;7.72;;
65477;SDS011;53678;39.642;22.430;2023-05-08T06:05:16;46.95;;;7.75;;
65477;SDS011;53678;39.642;22.430;2023-05-08T06:07:43;10.10;;;4.90;;
65477;SDS011;53678;39.642;22.430;2023-05-08T06:10:10;8.48;;;4.25;;
65477;SDS011;53678;39.642;22.430;2023-05-08T06:12:36;9.23;;;5.25;;
65477;SDS011;53678;39.642;22.430;2023-05-08T06:15:03;9.32;;;4.57;;
65477;SDS011;53678;39.642;22.430;2023-05-08T06:17:31;10.40;;;4.85;;
65477;SDS011;53678;39.642;22.430;2023-05-08T06:19:57;10.63;;;4.22;;
65477;SDS011;53678;39.642;22.430;2023-05-08T06:22:23;10.68;;;5.10;;
65477;SDS011;53678;39.642;22.430;2023-05-08T06:24:50;5.93;;;3.92;;
65477;SDS011;53678;39.642;22.430;2023-05-08T06:27:20;8.82;;;4.10;;
65477;SDS011;53678;39.642;22.430;2023-05-08T06:29:49;7.50;;;3.95;;
65477;SDS011;53678;39.642;22.430;2023-05-08T06:32:17;6.88;;;4.18;;
65477;SDS011;53678;39.642;22.430;2023-05-08T06:34:43;7.78;;;3.88;;
65477;SDS011;53678;39.642;22.430;2023-05-08T06:37:09;9.55;;;5.10;;
65477;SDS011;53678;39.642;22.430;2023-05-08T06:39:35;7.15;;;3.53;;
65477;SDS011;53678;39.642;22.430;2023-05-08T06:42:01;5.28;;;3.38;;
65477;SDS011;53678;39.642;22.430;2023-05-08T06:44:29;5.25;;;3.47;;
65477;SDS011;53678;39.642;22.430;2023-05-08T06:46:55;6.50;;;3.63;;
65477;SDS011;53678;39.642;22.430;2023-05-08T06:49:21;6.85;;;3.15;;
65477;SDS011;53678;39.642;22.430;2023-05-08T06:51:47;6.70;;;3.20;;
65477;SDS011;53678;39.642;22.430;2023-05-08T06:54:13;8.25;;;3.50;;
65477;SDS011;53678;39.642;22.430;2023-05-08T06:56:38;6.95;;;3.35;;
65477;SDS011;53678;39.642;22.430;2023-05-08T06:59:04;5.18;;;3.00;;
65477;SDS011;53678;39.642;22.430;2023-05-08T07:01:30;4.70;;;2.78;;
65477;SDS011;53678;39.642;22.430;2023-05-08T07:03:55;4.85;;;3.20;;
65477;SDS011;53678;39.642;22.430;2023-05-08T07:06:21;5.97;;;3.15;;
65477;SDS011;53678;39.642;22.430;2023-05-08T07:08:47;9.95;;;4.13;;
65477;SDS011;53678;39.642;22.430;2023-05-08T07:11:12;6.30;;;3.30;;
65477;SDS011;53678;39.642;22.430;2023-05-08T07:13:38;6.50;;;3.22;;
65477;SDS011;53678;39.642;22.430;2023-05-08T07:16:09;5.45;;;3.60;;
65477;SDS011;53678;39.642;22.430;2023-05-08T07:18:35;8.30;;;3.63;;
65477;SDS011;53678;39.642;22.430;2023-05-08T07:21:01;8.77;;;3.60;;
65477;SDS011;53678;39.642;22.430;2023-05-08T07:23:27;9.07;;;3.70;;
65477;SDS011;53678;39.642;22.430;2023-05-08T07:25:53;7.25;;;3.50;;
65477;SDS011;53678;39.642;22.430;2023-05-08T07:28:19;6.22;;;3.08;;
65477;SDS011;53678;39.642;22.430;2023-05-08T07:30:45;8.32;;;3.30;;
65477;SDS011;53678;39.642;22.430;2023-05-08T07:33:11;8.90;;;3.40;;
65477;SDS011;53678;39.642;22.430;2023-05-08T07:35:40;5.10;;;3.42;;
65477;SDS011;53678;39.642;22.430;2023-05-08T07:38:06;7.10;;;3.22;;
65477;SDS011;53678;39.642;22.430;2023-05-08T07:40:32;5.88;;;3.30;;
65477;SDS011;53678;39.642;22.430;2023-05-08T07:42:58;6.43;;;3.50;;
65477;SDS011;53678;39.642;22.430;2023-05-08T07:45:24;5.47;;;3.40;;
65477;SDS011;53678;39.642;22.430;2023-05-08T07:47:51;12.23;;;3.45;;
65477;SDS011;53678;39.642;22.430;2023-05-08T07:50:18;6.55;;;3.22;;
65477;SDS011;53678;39.642;22.430;2023-05-08T07:52:44;9.27;;;3.13;;
65477;SDS011;53678;39.642;22.430;2023-05-08T07:55:10;4.85;;;3.10;;
65477;SDS011;53678;39.642;22.430;2023-05-08T07:57:41;11.85;;;8.23;;
65477;SDS011;53678;39.642;22.430;2023-05-08T08:00:09;5.65;;;2.97;;
65477;SDS011;53678;39.642;22.430;2023-05-08T08:02:40;8.52;;;2.95;;
65477;SDS011;53678;39.642;22.430;2023-05-08T08:05:06;6.80;;;3.20;;
65477;SDS011;53678;39.642;22.430;2023-05-08T08:07:33;6.68;;;3.13;;
65477;SDS011;53678;39.642;22.430;2023-05-08T08:09:59;6.10;;;2.97;;
65477;SDS011;53678;39.642;22.430;2023-05-08T08:12:26;7.15;;;2.60;;
65477;SDS011;53678;39.642;22.430;2023-05-08T08:14:52;6.05;;;2.67;;
65477;SDS011;53678;39.642;22.430;2023-05-08T08:17:17;6.60;;;3.17;;
65477;SDS011;53678;39.642;22.430;2023-05-08T08:19:43;5.38;;;2.70;;
65477;SDS011;53678;39.642;22.430;2023-05-08T08:22:09;7.88;;;3.05;;
65477;SDS011;53678;39.642;22.430;2023-05-08T08:24:34;4.75;;;2.70;;
65477;SDS011;53678;39.642;22.430;2023-05-08T08:27:00;5.88;;;2.90;;
65477;SDS011;53678;39.642;22.430;2023-05-08T08:29:26;5.35;;;2.80;;
65477;SDS011;53678;39.642;22.430;2023-05-08T08:31:52;6.35;;;2.88;;
65477;SDS011;53678;39.642;22.430;2023-05-08T08:34:18;5.53;;;4.15;;
65477;SDS011;53678;39.642;22.430;2023-05-08T08:36:43;6.75;;;2.90;;
65477;SDS011;53678;39.642;22.430;2023-05-08T08:39:09;5.68;;;3.10;;
65477;SDS011;53678;39.642;22.430;2023-05-08T08:41:35;4.80;;;2.90;;
65477;SDS011;53678;39.642;22.430;2023-05-08T08:44:03;3.88;;;2.40;;
65477;SDS011;53678;39.642;22.430;2023-05-08T08:46:29;5.57;;;2.63;;
65477;SDS011;53678;39.642;22.430;2023-05-08T08:48:57;10.45;;;3.90;;
65477;SDS011;53678;39.642;22.430;2023-05-08T08:51:29;6.05;;;3.38;;
65477;SDS011;53678;39.642;22.430;2023-05-08T08:54:19;4.25;;;2.50;;
65477;SDS011;53678;39.642;22.430;2023-05-08T08:56:46;10.07;;;2.85;;
65477;SDS011;53678;39.642;22.430;2023-05-08T08:59:14;4.35;;;3.03;;
65477;SDS011;53678;39.642;22.430;2023-05-08T09:01:43;8.65;;;3.83;;
65477;SDS011;53678;39.642;22.430;2023-05-08T09:04:11;6.00;;;3.33;;
65477;SDS011;53678;39.642;22.430;2023-05-08T09:06:37;8.63;;;3.47;;
65477;SDS011;53678;39.642;22.430;2023-05-08T09:09:05;6.07;;;3.15;;
65477;SDS011;53678;39.642;22.430;2023-05-08T09:11:31;7.03;;;2.60;;
65477;SDS011;53678;39.642;22.430;2023-05-08T09:13:57;5.57;;;3.17;;
65477;SDS011;53678;39.642;22.430;2023-05-08T09:16:23;6.55;;;3.45;;
65477;SDS011;53678;39.642;22.430;2023-05-08T09:18:50;5.43;;;3.33;;
65477;SDS011;53678;39.642;22.430;2023-05-08T09:21:15;5.72;;;3.40;;
65477;SDS011;53678;39.642;22.430;2023-05-08T09:26:27;7.80;;;3.28;;
65477;SDS011;53678;39.642;22.430;2023-05-08T09:31:49;5.32;;;3.65;;
65477;SDS011;53678;39.642;22.430;2023-05-08T09:34:26;5.82;;;2.60;;
65477;SDS011;53678;39.642;22.430;2023-05-08T09:36:54;7.20;;;3.30;;
65477;SDS011;53678;39.642;22.430;2023-05-08T09:39:21;7.55;;;2.75;;
65477;SDS011;53678;39.642;22.430;2023-05-08T09:42:04;3.97;;;2.90;;
65477;SDS011;53678;39.642;22.430;2023-05-08T09:47:24;6.68;;;3.10;;
65477;SDS011;53678;39.642;22.430;2023-05-08T09:50:01;5.05;;;2.72;;
65477;SDS011;53678;39.642;22.430;2023-05-08T09:52:28;4.53;;;3.13;;
65477;SDS011;53678;39.642;22.430;2023-05-08T09:54:58;4.25;;;3.00;;
65477;SDS011;53678;39.642;22.430;2023-05-08T09:57:28;4.53;;;2.60;;
65477;SDS011;53678;39.642;22.430;2023-05-08T10:00:13;3.50;;;2.67;;
65477;SDS011;53678;39.642;22.430;2023-05-08T10:02:40;9.85;;;3.20;;
65477;SDS011;53678;39.642;22.430;2023-05-08T10:05:21;6.03;;;3.30;;
65477;SDS011;53678;39.642;22.430;2023-05-08T10:07:50;6.97;;;3.10;;
65477;SDS011;53678;39.642;22.430;2023-05-08T10:10:21;5.80;;;2.80;;
65477;SDS011;53678;39.642;22.430;2023-05-08T10:12:51;3.40;;;2.50;;
65477;SDS011;53678;39.642;22.430;2023-05-08T10:15:28;6.32;;;3.08;;
65477;SDS011;53678;39.642;22.430;2023-05-08T10:18:04;4.82;;;2.83;;
65477;SDS011;53678;39.642;22.430;2023-05-08T10:20:31;9.13;;;2.92;;
65477;SDS011;53678;39.642;22.430;2023-05-08T10:22:58;5.50;;;2.90;;
65477;SDS011;53678;39.642;22.430;2023-05-08T10:25:25;5.03;;;2.90;;
65477;SDS011;53678;39.642;22.430;2023-05-08T10:28:17;6.43;;;3.05;;
65477;SDS011;53678;39.642;22.430;2023-05-08T10:31:01;4.95;;;2.90;;
65477;SDS011;53678;39.642;22.430;2023-05-08T10:33:30;4.13;;;2.70;;
65477;SDS011;53678;39.642;22.430;2023-05-08T10:36:00;6.07;;;3.00;;
65477;SDS011;53678;39.642;22.430;2023-05-08T10:38:27;6.82;;;3.20;;
65477;SDS011;53678;39.642;22.430;2023-05-08T10:40:55;6.00;;;3.08;;
65477;SDS011;53678;39.642;22.430;2023-05-08T10:43:25;5.32;;;3.33;;
65477;SDS011;53678;39.642;22.430;2023-05-08T10:45:54;5.10;;;2.70;;
65477;SDS011;53678;39.642;22.430;2023-05-08T10:48:30;6.97;;;2.88;;
65477;SDS011;53678;39.642;22.430;2023-05-08T10:54:24;5.13;;;2.85;;
65477;SDS011;53678;39.642;22.430;2023-05-08T10:57:18;7.68;;;3.00;;
65477;SDS011;53678;39.642;22.430;2023-05-08T10:59:44;4.93;;;2.90;;
65477;SDS011;53678;39.642;22.430;2023-05-08T11:02:12;5.60;;;3.08;;
65477;SDS011;53678;39.642;22.430;2023-05-08T11:04:39;7.65;;;3.35;;
65477;SDS011;53678;39.642;22.430;2023-05-08T11:07:04;5.97;;;2.80;;
65477;SDS011;53678;39.642;22.430;2023-05-08T11:14:54;6.55;;;3.25;;
65477;SDS011;53678;39.642;22.430;2023-05-08T11:17:23;3.92;;;2.70;;
65477;SDS011;53678;39.642;22.430;2023-05-08T11:20:03;6.07;;;2.63;;
65477;SDS011;53678;39.642;22.430;2023-05-08T11:22:30;7.13;;;3.15;;
65477;SDS011;53678;39.642;22.430;2023-05-08T11:30:19;7.43;;;2.70;;
65477;SDS011;53678;39.642;22.430;2023-05-08T11:32:54;8.75;;;3.20;;
65477;SDS011;53678;39.642;22.430;2023-05-08T11:38:13;4.50;;;2.95;;
65477;SDS011;53678;39.642;22.430;2023-05-08T11:45:59;5.30;;;2.78;;
65477;SDS011;53678;39.642;22.430;2023-05-08T11:48:33;10.32;;;2.83;;
65477;SDS011;53678;39.642;22.430;2023-05-08T11:51:00;5.32;;;2.80;;
65477;SDS011;53678;39.642;22.430;2023-05-08T11:53:27;7.20;;;3.50;;
65477;SDS011;53678;39.642;22.430;2023-05-08T11:55:57;6.28;;;3.17;;
65477;SDS011;53678;39.642;22.430;2023-05-08T11:58:24;7.93;;;2.92;;
65477;SDS011;53678;39.642;22.430;2023-05-08T12:00:49;7.68;;;2.90;;
65477;SDS011;53678;39.642;22.430;2023-05-08T12:03:16;4.28;;;3.05;;
65477;SDS011;53678;39.642;22.430;2023-05-08T12:05:43;6.13;;;2.72;;
65477;SDS011;53678;39.642;22.430;2023-05-08T12:08:10;5.97;;;3.38;;
65477;SDS011;53678;39.642;22.430;2023-05-08T12:10:53;4.45;;;2.75;;
65477;SDS011;53678;39.642;22.430;2023-05-08T12:15:57;3.83;;;3.00;;
65477;SDS011;53678;39.642;22.430;2023-05-08T12:18:26;5.57;;;3.08;;
65477;SDS011;53678;39.642;22.430;2023-05-08T12:20:55;5.53;;;2.92;;
65477;SDS011;53678;39.642;22.430;2023-05-08T12:23:26;5.78;;;2.80;;
65477;SDS011;53678;39.642;22.430;2023-05-08T12:25:54;5.07;;;3.13;;
65477;SDS011;53678;39.642;22.430;2023-05-08T12:28:24;4.50;;;3.05;;
65477;SDS011;53678;39.642;22.430;2023-05-08T12:30:52;4.00;;;2.85;;
65477;SDS011;53678;39.642;22.430;2023-05-08T12:33:18;4.85;;;3.25;;
65477;SDS011;53678;39.642;22.430;2023-05-08T12:35:45;6.57;;;2.80;;
65477;SDS011;53678;39.642;22.430;2023-05-08T12:38:10;6.15;;;3.28;;
65477;SDS011;53678;39.642;22.430;2023-05-08T12:40:40;7.43;;;3.05;;
65477;SDS011;53678;39.642;22.430;2023-05-08T12:43:07;5.07;;;2.70;;
65477;SDS011;53678;39.642;22.430;2023-05-08T12:45:34;3.70;;;2.70;;
65477;SDS011;53678;39.642;22.430;2023-05-08T12:48:03;5.75;;;2.70;;
65477;SDS011;53678;39.642;22.430;2023-05-08T12:50:34;6.22;;;2.90;;
65477;SDS011;53678;39.642;22.430;2023-05-08T12:53:03;4.95;;;2.33;;
65477;SDS011;53678;39.642;22.430;2023-05-08T12:55:32;4.28;;;2.63;;
65477;SDS011;53678;39.642;22.430;2023-05-08T13:00:24;4.07;;;2.75;;
65477;SDS011;53678;39.642;22.430;2023-05-08T13:02:53;6.47;;;2.83;;
65477;SDS011;53678;39.642;22.430;2023-05-08T13:05:20;4.13;;;2.63;;
65477;SDS011;53678;39.642;22.430;2023-05-08T13:07:47;4.63;;;2.97;;
65477;SDS011;53678;39.642;22.430;2023-05-08T13:10:16;4.85;;;2.95;;
65477;SDS011;53678;39.642;22.430;2023-05-08T13:12:45;6.38;;;2.60;;
65477;SDS011;53678;39.642;22.430;2023-05-08T13:15:11;6.18;;;2.80;;
65477;SDS011;53678;39.642;22.430;2023-05-08T13:17:37;7.88;;;2.38;;
65477;SDS011;53678;39.642;22.430;2023-05-08T13:20:03;7.90;;;2.70;;
65477;SDS011;53678;39.642;22.430;2023-05-08T13:22:29;4.07;;;2.72;;
65477;SDS011;53678;39.642;22.430;2023-05-08T13:24:55;5.00;;;2.72;;
65477;SDS011;53678;39.642;22.430;2023-05-08T13:27:21;4.32;;;2.80;;
65477;SDS011;53678;39.642;22.430;2023-05-08T13:29:47;6.75;;;2.60;;
65477;SDS011;53678;39.642;22.430;2023-05-08T13:32:13;4.68;;;2.60;;
65477;SDS011;53678;39.642;22.430;2023-05-08T13:34:39;5.38;;;2.90;;
65477;SDS011;53678;39.642;22.430;2023-05-08T13:37:04;3.95;;;2.45;;
65477;SDS011;53678;39.642;22.430;2023-05-08T13:39:31;5.78;;;2.80;;
65477;SDS011;53678;39.642;22.430;2023-05-08T13:42:02;4.65;;;2.50;;
65477;SDS011;53678;39.642;22.430;2023-05-08T13:44:28;5.93;;;2.80;;
65477;SDS011;53678;39.642;22.430;2023-05-08T13:46:54;3.30;;;2.47;;
65477;SDS011;53678;39.642;22.430;2023-05-08T13:49:20;5.35;;;2.40;;
65477;SDS011;53678;39.642;22.430;2023-05-08T13:51:48;6.90;;;2.95;;
65477;SDS011;53678;39.642;22.430;2023-05-08T13:54:15;6.05;;;3.08;;
65477;SDS011;53678;39.642;22.430;2023-05-08T13:56:40;4.70;;;2.60;;
65477;SDS011;53678;39.642;22.430;2023-05-08T13:59:06;5.65;;;2.40;;
65477;SDS011;53678;39.642;22.430;2023-05-08T14:01:32;9.07;;;2.60;;
65477;SDS011;53678;39.642;22.430;2023-05-08T14:03:58;5.75;;;2.78;;
65477;SDS011;53678;39.642;22.430;2023-05-08T14:06:23;4.63;;;2.50;;
65477;SDS011;53678;39.642;22.430;2023-05-08T14:08:49;7.60;;;2.60;;
65477;SDS011;53678;39.642;22.430;2023-05-08T14:11:15;5.75;;;2.70;;
65477;SDS011;53678;39.642;22.430;2023-05-08T14:13:40;4.40;;;2.60;;
65477;SDS011;53678;39.642;22.430;2023-05-08T14:16:06;6.57;;;3.10;;
65477;SDS011;53678;39.642;22.430;2023-05-08T14:18:34;6.93;;;3.22;;
65477;SDS011;53678;39.642;22.430;2023-05-08T14:21:00;8.45;;;4.00;;
65477;SDS011;53678;39.642;22.430;2023-05-08T14:23:25;10.90;;;4.55;;
65477;SDS011;53678;39.642;22.430;2023-05-08T14:25:52;4.90;;;2.97;;
65477;SDS011;53678;39.642;22.430;2023-05-08T14:28:18;5.80;;;2.45;;
65477;SDS011;53678;39.642;22.430;2023-05-08T14:30:43;4.32;;;3.00;;
65477;SDS011;53678;39.642;22.430;2023-05-08T14:33:09;6.40;;;2.50;;
65477;SDS011;53678;39.642;22.430;2023-05-08T14:35:35;4.72;;;2.50;;
65477;SDS011;53678;39.642;22.430;2023-05-08T14:38:00;8.52;;;2.42;;
65477;SDS011;53678;39.642;22.430;2023-05-08T14:40:26;4.20;;;2.83;;
65477;SDS011;53678;39.642;22.430;2023-05-08T14:42:52;6.32;;;2.50;;
65477;SDS011;53678;39.642;22.430;2023-05-08T14:45:17;3.55;;;2.80;;
65477;SDS011;53678;39.642;22.430;2023-05-08T14:47:43;4.18;;;2.55;;
65477;SDS011;53678;39.642;22.430;2023-05-08T14:50:10;7.60;;;2.70;;
65477;SDS011;53678;39.642;22.430;2023-05-08T14:52:36;3.72;;;2.83;;
65477;SDS011;53678;39.642;22.430;2023-05-08T14:55:02;3.95;;;2.33;;
65477;SDS011;53678;39.642;22.430;2023-05-08T14:57:27;4.68;;;2.50;;
65477;SDS011;53678;39.642;22.430;2023-05-08T14:59:53;4.03;;;2.63;;
65477;SDS011;53678;39.642;22.430;2023-05-08T15:02:20;5.10;;;3.13;;
65477;SDS011;53678;39.642;22.430;2023-05-08T15:04:46;4.07;;;2.30;;
65477;SDS011;53678;39.642;22.430;2023-05-08T15:07:12;4.25;;;2.70;;
65477;SDS011;53678;39.642;22.430;2023-05-08T15:09:38;4.35;;;2.55;;
65477;SDS011;53678;39.642;22.430;2023-05-08T15:12:03;4.35;;;2.80;;
65477;SDS011;53678;39.642;22.430;2023-05-08T15:14:29;5.57;;;3.20;;
65477;SDS011;53678;39.642;22.430;2023-05-08T15:16:55;5.85;;;2.40;;
65477;SDS011;53678;39.642;22.430;2023-05-08T15:19:21;5.38;;;2.63;;
65477;SDS011;53678;39.642;22.430;2023-05-08T15:21:46;7.85;;;2.60;;
65477;SDS011;53678;39.642;22.430;2023-05-08T15:24:12;4.75;;;3.03;;
65477;SDS011;53678;39.642;22.430;2023-05-08T15:26:38;4.00;;;2.50;;
65477;SDS011;53678;39.642;22.430;2023-05-08T15:29:04;4.97;;;2.75;;
65477;SDS011;53678;39.642;22.430;2023-05-08T15:31:29;4.70;;;2.40;;
65477;SDS011;53678;39.642;22.430;2023-05-08T15:33:55;5.38;;;2.55;;
65477;SDS011;53678;39.642;22.430;2023-05-08T15:36:20;4.35;;;3.05;;
65477;SDS011;53678;39.642;22.430;2023-05-08T15:38:46;5.25;;;2.90;;
65477;SDS011;53678;39.642;22.430;2023-05-08T15:41:15;5.43;;;3.00;;
65477;SDS011;53678;39.642;22.430;2023-05-08T15:43:40;5.10;;;2.70;;
65477;SDS011;53678;39.642;22.430;2023-05-08T15:46:06;3.38;;;2.55;;